This is the latest recevied weather packets stored in our database for station/object IZ5MJO-13. If no packets are shown the sender has not sent any weather packets the latest 10 day(s).
| Time | Temp. | Humidity | Pressure | Rain* | Wind** | Luminosity | Snow |
|---|---|---|---|---|---|---|---|
| 1777926081 | 18.89° C | 37% | 1006.7 hPa | - | - | - | - |
| 1777925633 | 15° C | 51% | 1007.3 hPa | - | - | - | - |
| 1777925501 | 19.44° C | 37% | 1006.7 hPa | - | - | - | - |
| 1777924732 | 15° C | 47% | 1007.3 hPa | - | - | - | - |
| 1777924511 | 20° C | 37% | 1006.7 hPa | - | - | - | - |
| 1777924504 | 20.56° C | 37% | 1006.6 hPa | - | - | - | - |
| 1777924487 | 20.56° C | 36% | 1006.8 hPa | - | - | - | - |
| 1777923832 | 15° C | 49% | 1007.2 hPa | - | - | - | - |
| 1777922932 | 15° C | 46% | 1007.2 hPa | - | - | - | - |
| 1777922031 | 15° C | 45% | 1007.2 hPa | - | - | - | - |
| 1777921275 | 20.56° C | 36% | 1006.8 hPa | - | - | - | - |
| 1777921131 | 15.56° C | 46% | 1006.9 hPa | - | - | - | - |
| 1777920231 | 15.56° C | 45% | 1006.8 hPa | - | - | - | - |
| 1777919331 | 16.11° C | 44% | 1006.7 hPa | - | - | - | - |
| 1777918431 | 16.11° C | 44% | 1006.9 hPa | - | - | - | - |
| 1777917530 | 16.67° C | 44% | 1006.9 hPa | - | - | - | - |
| 1777916630 | 16.67° C | 44% | 1006.9 hPa | - | - | - | - |
| 1777915730 | 17.22° C | 42% | 1006.7 hPa | - | - | - | - |
| 1777914830 | 17.78° C | 40% | 1006.6 hPa | - | - | - | - |
| 1777913929 | 18.33° C | 38% | 1006.5 hPa | - | - | - | - |
| 1777913029 | 18.89° C | 36% | 1006.6 hPa | - | - | - | - |
| 1777912128 | 18.89° C | 37% | 1006.7 hPa | - | - | - | - |
| 1777911227 | 19.44° C | 37% | 1006.7 hPa | - | - | - | - |
| 1777910327 | 20° C | 37% | 1006.7 hPa | - | - | - | - |
| 1777909427 | 20.56° C | 37% | 1006.6 hPa | - | - | - | - |
* Rain since midnight (hover to see other rain measurements)
** Current wind speed in m/s (hover to see current wind gust speed)